Time;durP1;ratioP1;P1;durP2;ratioP2;P2;SDS_P1;SDS_P2;PMS_P1;PMS_P2;Temp;Humidity;BMP_temperature;BMP_pressure;BME280_temperature;BME280_humidity;BME280_pressure;Samples;Min_cycle;Max_cycle;Signal;HPM_P1;HPM_P2
2021/03/04 00:00:20;;;;;;;323.73;152.85;;;;;;;;;;5072865;28;20082;-61
2021/03/04 00:02:47;;;;;;;291.95;137.02;;;;;;;;;;5071941;28;20116;-61
2021/03/04 00:05:13;;;;;;;284.20;133.88;;;;;;;;;;5072818;28;20020;-61
2021/03/04 00:07:39;;;;;;;342.17;161.60;;;;;;;;;;5073214;28;20025;-61
2021/03/04 00:10:07;;;;;;;308.08;144.07;;;;;;;;;;5073189;28;20037;-61
2021/03/04 00:12:33;;;;;;;307.70;143.38;;;;;;;;;;5073091;28;20031;-62
2021/03/04 00:15:00;;;;;;;277.38;131.48;;;;;;;;;;5073157;28;20036;-62
2021/03/04 00:17:26;;;;;;;323.77;155.35;;;;;;;;;;5073356;28;20371;-62
2021/03/04 00:19:52;;;;;;;324.80;156.05;;;;;;;;;;5071237;28;20102;-62
2021/03/04 00:22:18;;;;;;;350.83;172.07;;;;;;;;;;5073025;28;20471;-62
2021/03/04 00:24:45;;;;;;;336.80;157.90;;;;;;;;;;5073025;28;20025;-63
2021/03/04 00:27:11;;;;;;;325.13;153.43;;;;;;;;;;5072805;28;20458;-62
2021/03/04 00:29:37;;;;;;;331.60;162.70;;;;;;;;;;5072648;28;20466;-63
2021/03/04 00:32:03;;;;;;;337.63;158.50;;;;;;;;;;5072932;28;20021;-63
2021/03/04 00:34:29;;;;;;;335.90;154.85;;;;;;;;;;5071596;28;20070;-62
2021/03/04 00:36:55;;;;;;;324.25;154.20;;;;;;;;;;5072986;28;20463;-62
2021/03/04 00:39:21;;;;;;;320.27;150.48;;;;;;;;;;5073004;28;20118;-62
2021/03/04 00:41:48;;;;;;;325.83;153.40;;;;;;;;;;5075160;28;20064;-62
2021/03/04 00:44:14;;;;;;;320.65;150.60;;;;;;;;;;5075531;28;20025;-62
2021/03/04 00:46:40;;;;;;;305.52;144.93;;;;;;;;;;5076905;28;20375;-62
2021/03/04 00:49:06;;;;;;;297.73;146.68;;;;;;;;;;5075460;28;20043;-62
2021/03/04 00:51:32;;;;;;;309.10;145.70;;;;;;;;;;5076733;28;20028;-62
2021/03/04 00:53:58;;;;;;;286.67;138.10;;;;;;;;;;5076409;28;20071;-62
2021/03/04 00:56:25;;;;;;;285.40;136.27;;;;;;;;;;5076646;28;20103;-62
2021/03/04 00:58:51;;;;;;;279.55;131.13;;;;;;;;;;5076493;28;20037;-62
2021/03/04 01:01:17;;;;;;;263.63;127.97;;;;;;;;;;5076491;28;20036;-62
2021/03/04 01:03:44;;;;;;;269.80;128.70;;;;;;;;;;5075154;28;20035;-62
2021/03/04 01:06:10;;;;;;;263.00;127.10;;;;;;;;;;5076652;28;20429;-62
2021/03/04 01:08:36;;;;;;;276.30;128.18;;;;;;;;;;5076652;28;20417;-63
2021/03/04 01:11:02;;;;;;;300.20;144.80;;;;;;;;;;5076039;28;20390;-62
2021/03/04 01:13:29;;;;;;;303.65;146.23;;;;;;;;;;5076256;28;20027;-62
2021/03/04 01:15:55;;;;;;;293.17;145.03;;;;;;;;;;5076238;28;20033;-62
2021/03/04 01:18:21;;;;;;;286.53;144.53;;;;;;;;;;5076298;28;20020;-61
2021/03/04 01:20:47;;;;;;;294.95;142.32;;;;;;;;;;5075641;28;20048;-61
2021/03/04 01:23:13;;;;;;;287.77;142.48;;;;;;;;;;5075104;28;20379;-62
2021/03/04 01:25:40;;;;;;;283.00;140.25;;;;;;;;;;5074797;28;20463;-62
2021/03/04 01:28:06;;;;;;;270.48;134.05;;;;;;;;;;5074786;28;20123;-61
2021/03/04 01:30:33;;;;;;;279.97;129.67;;;;;;;;;;5076016;28;20074;-62
2021/03/04 01:32:59;;;;;;;241.53;114.93;;;;;;;;;;5075951;28;20024;-62
2021/03/04 01:35:25;;;;;;;254.07;123.07;;;;;;;;;;5075884;28;20026;-62
2021/03/04 01:37:54;;;;;;;257.85;126.50;;;;;;;;;;5075889;28;20028;-62
2021/03/04 01:40:23;;;;;;;261.67;129.13;;;;;;;;;;5075786;28;20033;-62
2021/03/04 01:42:52;;;;;;;274.00;131.90;;;;;;;;;;5075803;28;20031;-62
2021/03/04 01:45:19;;;;;;;269.98;131.60;;;;;;;;;;5075988;28;20024;-62
2021/03/04 01:47:53;;;;;;;269.00;126.43;;;;;;;;;;5075431;28;20458;-62
2021/03/04 01:50:20;;;;;;;293.13;132.90;;;;;;;;;;5074400;28;20462;-62
2021/03/04 01:52:46;;;;;;;285.27;132.87;;;;;;;;;;5075151;28;20039;-62
2021/03/04 01:55:13;;;;;;;275.97;130.13;;;;;;;;;;5075509;28;20024;-62
2021/03/04 01:57:39;;;;;;;268.50;124.20;;;;;;;;;;5075541;28;20028;-62
2021/03/04 02:00:08;;;;;;;267.92;127.90;;;;;;;;;;5074072;28;20383;-62
2021/03/04 02:02:34;;;;;;;265.30;124.70;;;;;;;;;;5075381;28;20029;-62
2021/03/04 02:05:00;;;;;;;257.08;122.88;;;;;;;;;;5075382;28;20068;-62
2021/03/04 02:07:32;;;;;;;266.23;122.78;;;;;;;;;;5075370;28;20033;-62
2021/03/04 02:10:19;;;;;;;252.52;120.30;;;;;;;;;;5075029;28;20036;-62
2021/03/04 02:12:53;;;;;;;254.38;120.90;;;;;;;;;;5074704;28;20551;-62
2021/03/04 02:15:23;;;;;;;270.00;124.73;;;;;;;;;;5073973;28;20036;-62
2021/03/04 02:17:51;;;;;;;250.77;117.33;;;;;;;;;;5075453;28;20047;-62
2021/03/04 02:20:34;;;;;;;244.27;116.10;;;;;;;;;;5073230;28;20049;-61
2021/03/04 02:23:09;;;;;;;229.38;104.80;;;;;;;;;;5075034;28;20036;-62
2021/03/04 02:25:44;;;;;;;212.93;103.63;;;;;;;;;;5074973;28;20031;-62
2021/03/04 02:28:11;;;;;;;218.57;97.10;;;;;;;;;;5075040;28;20035;-62
2021/03/04 02:30:38;;;;;;;242.17;117.17;;;;;;;;;;5073583;28;20058;-62
2021/03/04 02:33:30;;;;;;;236.43;111.67;;;;;;;;;;5073510;28;20040;-62
2021/03/04 02:35:58;;;;;;;224.20;107.37;;;;;;;;;;5071944;28;20478;-62
2021/03/04 02:38:25;;;;;;;241.33;118.20;;;;;;;;;;5074495;28;20032;-63
2021/03/04 02:40:52;;;;;;;239.53;114.77;;;;;;;;;;5074323;28;20070;-63
2021/03/04 02:43:19;;;;;;;233.37;110.97;;;;;;;;;;5074678;28;20029;-62
2021/03/04 02:45:46;;;;;;;221.60;104.83;;;;;;;;;;5073311;28;20020;-62
2021/03/04 02:48:13;;;;;;;218.87;100.30;;;;;;;;;;5074523;28;20103;-62
2021/03/04 02:50:40;;;;;;;211.40;99.17;;;;;;;;;;5074196;28;20055;-62
2021/03/04 02:53:07;;;;;;;198.43;93.63;;;;;;;;;;5074683;28;20034;-62
2021/03/04 02:55:34;;;;;;;202.63;96.50;;;;;;;;;;5072838;28;20020;-61
2021/03/04 02:58:01;;;;;;;190.67;92.93;;;;;;;;;;5074385;28;20075;-62
2021/03/04 03:00:28;;;;;;;193.30;92.27;;;;;;;;;;5074190;28;20047;-61
2021/03/04 03:02:55;;;;;;;164.93;82.17;;;;;;;;;;5073687;28;20463;-62
2021/03/04 03:05:23;;;;;;;168.80;81.30;;;;;;;;;;5073845;28;20024;-61
2021/03/04 03:07:50;;;;;;;160.90;79.10;;;;;;;;;;5072924;28;20249;-61
2021/03/04 03:10:17;;;;;;;145.43;71.07;;;;;;;;;;5074089;28;20029;-62
2021/03/04 03:12:44;;;;;;;136.60;68.93;;;;;;;;;;5074067;28;20043;-62
2021/03/04 03:15:13;;;;;;;143.87;70.47;;;;;;;;;;5073667;28;20099;-61
2021/03/04 03:17:40;;;;;;;146.17;69.87;;;;;;;;;;5073998;28;20082;-62
2021/03/04 03:20:07;;;;;;;146.90;71.97;;;;;;;;;;5073619;28;20434;-62
2021/03/04 03:22:33;;;;;;;140.90;69.70;;;;;;;;;;5073826;28;20059;-62
2021/03/04 03:24:59;;;;;;;144.90;69.40;;;;;;;;;;5073509;28;20033;-61
2021/03/04 03:27:27;;;;;;;144.17;71.37;;;;;;;;;;5073833;28;20074;-60
2021/03/04 03:29:53;;;;;;;144.17;67.60;;;;;;;;;;5073752;28;20032;-62
2021/03/04 03:32:20;;;;;;;142.17;70.13;;;;;;;;;;5073648;28;20035;-62
2021/03/04 03:34:47;;;;;;;129.00;65.90;;;;;;;;;;5073411;28;20036;-62
2021/03/04 03:37:13;;;;;;;123.70;63.60;;;;;;;;;;5073585;28;20035;-62
2021/03/04 03:39:40;;;;;;;126.23;61.70;;;;;;;;;;5073252;28;20055;-62
2021/03/04 03:42:07;;;;;;;136.63;65.00;;;;;;;;;;5073558;28;20028;-62
2021/03/04 03:44:34;;;;;;;133.90;65.87;;;;;;;;;;5072203;28;20029;-62
2021/03/04 03:47:02;;;;;;;152.00;69.20;;;;;;;;;;5073460;28;20060;-62
2021/03/04 03:49:28;;;;;;;155.53;74.60;;;;;;;;;;5073458;28;20478;-61
2021/03/04 03:51:56;;;;;;;166.20;78.10;;;;;;;;;;5073353;28;20025;-63
2021/03/04 03:54:23;;;;;;;160.00;76.07;;;;;;;;;;5073421;28;20028;-63
2021/03/04 03:56:49;;;;;;;148.40;70.33;;;;;;;;;;5073587;28;20025;-64
2021/03/04 03:59:15;;;;;;;146.83;70.57;;;;;;;;;;5073540;28;20039;-63
2021/03/04 04:01:42;;;;;;;138.00;64.83;;;;;;;;;;5073277;28;20025;-64
2021/03/04 04:04:08;;;;;;;149.77;68.63;;;;;;;;;;5071962;28;20025;-63
2021/03/04 04:06:34;;;;;;;139.13;64.73;;;;;;;;;;5071916;28;20083;-63
2021/03/04 04:09:00;;;;;;;131.83;64.83;;;;;;;;;;5071877;28;20482;-63
2021/03/04 04:11:27;;;;;;;111.20;58.17;;;;;;;;;;5073149;28;20031;-62
2021/03/04 04:13:54;;;;;;;95.57;46.23;;;4.70;85.70;;;;;;5073368;28;20040;-63
2021/03/04 04:16:21;;;;;;;92.97;47.03;;;;;;;;;;5071581;28;20111;-62
2021/03/04 04:18:47;;;;;;;103.37;50.67;;;;;;;;;;5072736;28;20479;-63
2021/03/04 04:21:14;;;;;;;108.73;51.90;;;;;;;;;;5073003;28;20036;-63
2021/03/04 04:23:42;;;;;;;126.33;61.40;;;;;;;;;;5072994;28;20476;-62
2021/03/04 04:26:08;;;;;;;119.57;60.53;;;;;;;;;;5071911;28;20028;-62
2021/03/04 04:28:35;;;;;;;120.77;56.13;;;;;;;;;;5071732;28;20390;-62
2021/03/04 04:31:01;;;;;;;128.53;64.97;;;;;;;;;;5072954;28;20032;-62
2021/03/04 04:33:27;;;;;;;136.87;71.63;;;;;;;;;;5072931;28;20429;-62
2021/03/04 04:35:53;;;;;;;110.40;53.73;;;;;;;;;;5071657;28;20046;-62
2021/03/04 04:38:20;;;;;;;109.80;52.20;;;;;;;;;;5073247;28;20032;-61
2021/03/04 04:40:46;;;;;;;107.63;51.37;;;;;;;;;;5072862;28;20116;-63
2021/03/04 04:43:12;;;;;;;102.77;50.50;;;;;;;;;;5073130;28;20036;-63
2021/03/04 04:45:38;;;;;;;102.67;49.80;;;;;;;;;;5072820;28;20078;-63
2021/03/04 04:48:05;;;;;;;112.10;57.23;;;;;;;;;;5073073;28;20020;-63
2021/03/04 04:50:31;;;;;;;113.47;56.93;;;;;;;;;;5072805;28;20036;-62
2021/03/04 04:52:58;;;;;;;122.40;60.13;;;;;;;;;;5072786;28;20085;-61
2021/03/04 04:55:24;;;;;;;122.53;61.33;;;;;;;;;;5072645;28;20073;-59
2021/03/04 04:57:50;;;;;;;117.90;59.97;;;;;;;;;;5072970;28;20031;-62
2021/03/04 05:00:17;;;;;;;122.87;60.57;;;;;;;;;;5072423;28;20032;-63
2021/03/04 05:02:43;;;;;;;115.50;60.83;;;;;;;;;;5072902;28;20371;-60
2021/03/04 05:05:09;;;;;;;120.50;58.10;;;;;;;;;;5072920;28;20028;-61
2021/03/04 05:07:38;;;;;;;132.33;58.83;;;;;;;;;;5072274;28;20028;-62
2021/03/04 05:10:05;;;;;;;118.87;57.23;;;;;;;;;;5066436;28;20974;-60
2021/03/04 05:12:32;;;;;;;109.63;54.03;;;;;;;;;;5063175;28;20131;-61
2021/03/04 05:15:02;;;;;;;110.83;54.03;;;;;;;;;;5053706;28;20025;-61
2021/03/04 05:17:28;;;;;;;108.80;55.20;;;;;;;;;;5064692;28;20115;-60
2021/03/04 05:19:54;;;;;;;99.20;45.93;;;;;;;;;;5051929;28;20098;-61
2021/03/04 05:22:20;;;;;;;87.83;44.50;;;;;;;;;;5052181;28;20037;-61
2021/03/04 05:24:46;;;;;;;208.27;103.83;;;;;;;;;;5052431;28;20104;-61
2021/03/04 05:27:12;;;;;;;282.20;133.37;;;;;;;;;;5053769;28;20451;-60
2021/03/04 05:29:38;;;;;;;113.13;54.30;;;;;;;;;;5056116;28;20479;-61
2021/03/04 05:32:05;;;;;;;106.40;52.70;;;;;;;;;;5055934;28;20090;-61
2021/03/04 05:34:31;;;;;;;114.50;51.50;;;;;;;;;;5054555;28;20057;-60
2021/03/04 05:36:57;;;;;;;95.77;49.33;;;;;;;;;;5055537;28;20032;-62
2021/03/04 05:39:24;;;;;;;165.83;82.87;;;;;;;;;;5055579;28;20162;-61
2021/03/04 05:41:50;;;;;;;127.10;64.70;;;;;;;;;;5055869;28;20037;-61
2021/03/04 05:44:17;;;;;;;142.10;67.43;;;;;;;;;;5056007;28;20036;-62
2021/03/04 05:46:45;;;;;;;128.70;60.57;;;;;;;;;;5055736;28;20025;-61
2021/03/04 05:49:13;;;;;;;134.23;63.07;;;;;;;;;;5055350;28;20032;-61
2021/03/04 05:51:41;;;;;;;146.27;62.83;;;;;;;;;;5055646;28;20033;-62
2021/03/04 05:54:10;;;;;;;134.50;62.13;;;3.00;90.50;;;;;;5054284;28;20028;-62
2021/03/04 05:56:36;;;;;;;124.33;59.77;;;3.60;88.10;;;;;;5055424;28;20029;-62
2021/03/04 05:59:02;;;;;;;126.70;61.13;;;;;;;;;;5055404;28;20111;-62
2021/03/04 06:01:29;;;;;;;143.70;61.07;;;;;;;;;;5055209;28;20036;-62
2021/03/04 06:03:55;;;;;;;125.53;60.43;;;;;;;;;;5055368;28;20024;-62
2021/03/04 06:06:21;;;;;;;129.53;58.53;;;;;;;;;;5055278;28;20435;-62
2021/03/04 06:08:48;;;;;;;123.83;61.07;;;;;;;;;;5053911;28;20112;-62
2021/03/04 06:11:14;;;;;;;129.70;58.77;;;;;;;;;;5053897;28;20033;-62
2021/03/04 06:13:40;;;;;;;133.50;59.13;;;;;;;;;;5055164;28;20025;-62
2021/03/04 06:16:07;;;;;;;133.90;60.07;;;;;;;;;;5055075;28;20398;-62
2021/03/04 06:18:44;;;;;;;135.90;55.10;;;;;;;;;;5054903;28;20021;-62
2021/03/04 06:21:20;;;;;;;136.60;58.00;;;;;;;;;;5055001;28;20037;-62
2021/03/04 06:23:46;;;;;;;134.70;52.67;;;;;;;;;;5054951;28;20017;-62
2021/03/04 06:26:24;;;;;;;135.30;53.60;;;;;;;;;;5054953;28;20017;-62
2021/03/04 06:28:50;;;;;;;110.57;48.90;;;;;;;;;;5053348;28;20017;-62
2021/03/04 06:31:19;;;;;;;122.00;50.03;;;3.60;89.00;;;;;;5055039;28;20029;-62
2021/03/04 06:33:46;;;;;;;110.20;48.33;;;;;;;;;;5054697;28;20028;-61
2021/03/04 06:36:17;;;;;;;112.50;48.60;;;4.30;86.60;;;;;;5054307;28;20040;-65
2021/03/04 06:38:56;;;;;;;122.40;50.78;;;;;;;;;;5065110;28;20371;-63
2021/03/04 06:41:22;;;;;;;116.47;49.60;;;;;;;;;;5073075;28;20035;-62
2021/03/04 06:43:59;;;;;;;114.68;48.42;;;;;;;;;;5070730;28;20020;-62
2021/03/04 06:46:25;;;;;;;124.63;52.50;;;;;;;;;;5069744;28;20440;-62
2021/03/04 06:48:52;;;;;;;112.60;54.45;;;;;;;;;;5053799;28;20025;-67
2021/03/04 06:51:18;;;;;;;96.00;44.97;;;4.50;85.00;;;;;;5054564;28;20029;-67
2021/03/04 06:53:50;;;;;;;71.80;37.75;;;;;;;;;;5054269;28;20090;-65
2021/03/04 06:56:16;;;;;;;64.57;33.95;;;;;;;;;;5054367;28;20024;-65
2021/03/04 06:58:42;;;;;;;68.63;34.70;;;;;;;;;;5052947;28;20112;-63
2021/03/04 07:01:09;;;;;;;81.80;43.00;;;;;;;;;;5052718;28;20044;-64
2021/03/04 07:03:46;;;;;;;73.03;35.45;;;;;;;;;;5053870;28;20475;-65
2021/03/04 07:06:16;;;;;;;67.10;35.30;;;;;;;;;;5053710;28;20078;-69
2021/03/04 07:08:43;;;;;;;65.68;35.25;;;;;;;;;;5053996;28;20398;-66
2021/03/04 07:11:11;;;;;;;76.22;39.38;;;;;;;;;;5052521;28;20037;-67
2021/03/04 07:13:39;;;;;;;76.95;37.45;;;5.40;81.90;;;;;;5056501;28;20029;-68
2021/03/04 07:16:19;;;;;;;77.93;39.97;;;6.50;78.50;;;;;;5069099;28;20025;-65
2021/03/04 07:18:44;;;;;;;71.70;38.45;;;6.70;79.40;;;;;;5072236;28;20033;-65
2021/03/04 07:21:12;;;;;;;64.43;36.30;;;6.80;78.70;;;;;;5073726;28;20102;-67
2021/03/04 07:23:42;;;;;;;67.13;32.13;;;7.00;78.90;;;;;;5072410;28;20032;-68
2021/03/04 07:26:09;;;;;;;68.03;33.78;;;;;;;;;;5071760;28;20046;-68
2021/03/04 07:28:39;;;;;;;74.60;36.03;;;;;;;;;;5053635;28;20452;-69
2021/03/04 07:31:06;;;;;;;67.35;38.03;;;;;;;;;;5053741;28;20028;-67
2021/03/04 07:33:35;;;;;;;88.68;41.78;;;;;;;;;;5053609;28;20032;-66
2021/03/04 07:36:05;;;;;;;85.53;43.92;;;;;;;;;;5052490;28;20103;-68
2021/03/04 07:38:32;;;;;;;81.75;42.85;;;;;;;;;;5053498;28;20112;-67
2021/03/04 07:41:02;;;;;;;115.20;49.25;;;;;;;;;;5051749;28;20041;-67
2021/03/04 07:43:28;;;;;;;139.48;49.97;;;;;;;;;;5052660;28;20036;-67
2021/03/04 07:45:54;;;;;;;125.20;49.70;;;7.20;78.40;;;;;;5052171;28;20041;-67
2021/03/04 07:48:20;;;;;;;109.25;47.22;;;;;;;;;;5052985;28;20033;-67
2021/03/04 07:51:01;;;;;;;117.03;48.05;;;;;;;;;;5052839;28;20068;-67
2021/03/04 07:53:28;;;;;;;102.85;46.22;;;;;;;;;;5053287;28;20021;-67
2021/03/04 07:55:54;;;;;;;97.32;45.45;;;;;;;;;;5058825;28;20543;-67
2021/03/04 07:58:20;;;;;;;99.60;42.63;;;;;;;;;;5073239;28;20024;-68
2021/03/04 08:00:46;;;;;;;89.60;43.35;;;;;;;;;;5073177;28;20032;-68
2021/03/04 08:03:12;;;;;;;74.20;38.53;;;;;;;;;;5071831;28;20031;-67
2021/03/04 08:05:43;;;;;;;72.07;37.45;;;;;;;;;;5073150;28;20021;-67
2021/03/04 08:08:17;;;;;;;64.55;34.60;;;;;;;;;;5073179;28;20025;-67
2021/03/04 08:10:50;;;;;;;64.93;35.95;;;;;;;;;;5073077;28;20024;-68
2021/03/04 08:13:16;;;;;;;51.17;29.40;;;;;;;;;;5073135;28;20020;-68
2021/03/04 08:15:44;;;;;;;57.30;30.92;;;;;;;;;;5073045;28;20407;-68
2021/03/04 08:18:20;;;;;;;50.67;28.20;;;;;;;;;;5069213;28;20043;-69
2021/03/04 08:20:47;;;;;;;47.35;26.58;;;;;;;;;;5057373;28;20049;-68
2021/03/04 08:23:15;;;;;;;53.28;26.65;;;;;;;;;;5051921;28;20025;-69
2021/03/04 08:25:41;;;;;;;57.95;27.85;;;8.70;72.60;;;;;;5052755;28;20037;-68
2021/03/04 08:28:09;;;;;;;70.40;29.60;;;11.10;64.50;;;;;;5065927;28;20029;-67
2021/03/04 08:30:41;;;;;;;59.40;30.17;;;11.30;63.30;;;;;;5068118;28;20037;-66
2021/03/04 08:33:09;;;;;;;63.55;31.90;;;11.50;63.20;;;;;;5052540;28;20025;-67
2021/03/04 08:35:37;;;;;;;67.40;33.22;;;11.70;62.40;;;;;;5052570;28;20027;-69
2021/03/04 08:38:09;;;;;;;59.85;31.73;;;12.00;62.40;;;;;;5052534;28;20040;-68
2021/03/04 08:40:50;;;;;;;49.83;28.00;;;12.20;63.10;;;;;;5052517;28;20487;-67
2021/03/04 08:43:18;;;;;;;61.30;29.85;;;12.40;61.70;;;;;;5055014;28;20463;-68
2021/03/04 08:45:46;;;;;;;47.13;27.95;;;12.80;58.30;;;;;;5071810;28;20020;-66
2021/03/04 08:48:13;;;;;;;35.53;22.20;;;13.10;59.90;;;;;;5071134;28;20517;-69
2021/03/04 08:50:45;;;;;;;43.35;23.63;;;13.20;56.90;;;;;;5070243;28;20107;-66
2021/03/04 08:53:16;;;;;;;42.28;22.88;;;13.40;55.70;;;;;;5072641;28;20120;-68
2021/03/04 08:55:53;;;;;;;33.28;20.73;;;13.80;57.90;;;;;;5071479;28;20028;-64
2021/03/04 08:58:20;;;;;;;36.83;22.80;;;13.90;54.30;;;;;;5072690;28;20047;-66
2021/03/04 09:00:50;;;;;;;36.40;21.52;;;14.00;54.00;;;;;;5070965;28;20037;-66
2021/03/04 09:03:16;;;;;;;39.85;21.95;;;14.20;53.60;;;;;;5075503;28;20029;-64
2021/03/04 09:05:42;;;;;;;35.95;21.42;;;14.20;51.60;;;;;;5076611;28;20059;-67
2021/03/04 09:08:13;;;;;;;67.43;26.25;;;14.40;53.20;;;;;;5075396;28;20029;-66
2021/03/04 09:10:51;;;;;;;37.03;23.58;;;14.60;54.20;;;;;;5075127;28;20037;-67
2021/03/04 09:13:24;;;;;;;56.95;24.40;;;14.90;51.20;;;;;;5076079;28;20158;-66
2021/03/04 09:16:06;;;;;;;43.70;20.63;;;15.10;50.90;;;;;;5076311;28;20079;-65
2021/03/04 09:18:44;;;;;;;;;;;15.20;50.80;;;;;;5076280;28;20070;-65
2021/03/04 09:21:18;;;;;;;33.65;17.25;;;15.40;50.30;;;;;;5075956;28;19943;-65
2021/03/04 09:23:44;;;;;;;25.27;16.33;;;15.50;48.00;;;;;;5076109;28;20530;-64
2021/03/04 09:26:10;;;;;;;81.63;30.27;;;15.60;47.20;;;;;;5076244;28;20083;-66
2021/03/04 09:28:38;;;;;;;43.83;18.35;;;15.70;48.50;;;;;;5075663;28;20024;-65
2021/03/04 09:31:15;;;;;;;32.33;16.02;;;16.00;45.40;;;;;;5075962;28;20024;-64
2021/03/04 09:33:44;;;;;;;24.25;15.45;;;;;;;;;;5075945;28;20169;-64
2021/03/04 09:36:17;;;;;;;20.65;13.88;;;16.40;44.70;;;;;;5075813;28;20027;-64
2021/03/04 09:38:51;;;;;;;19.55;13.02;;;16.90;41.60;;;;;;5075776;28;20069;-66
2021/03/04 09:41:18;;;;;;;16.45;11.60;;;17.20;39.70;;;;;;5075754;28;20379;-67
2021/03/04 09:43:45;;;;;;;15.30;11.45;;;17.40;41.00;;;;;;5075763;28;20024;-66
2021/03/04 09:46:11;;;;;;;15.63;9.95;;;;;;;;;;5075742;28;20033;-64
2021/03/04 09:48:39;;;;;;;17.83;11.40;;;;;;;;;;5074142;28;20052;-66
2021/03/04 09:51:06;;;;;;;17.52;11.10;;;;;;;;;;5075478;28;20016;-66
2021/03/04 09:53:46;;;;;;;22.52;11.73;;;17.60;38.00;;;;;;5075238;28;20032;-65
2021/03/04 09:56:18;;;;;;;21.65;11.32;;;;;;;;;;5075455;28;20488;-66
2021/03/04 09:58:45;;;;;;;32.28;11.75;;;;;;;;;;5075102;28;20479;-66
2021/03/04 10:01:11;;;;;;;24.65;12.35;;;;;;;;;;5074973;28;20051;-66
2021/03/04 10:03:38;;;;;;;24.58;11.75;;;;;;;;;;5075443;28;20026;-67
2021/03/04 10:06:07;;;;;;;17.92;11.93;;;;;;;;;;5075293;28;20020;-66
2021/03/04 10:08:38;;;;;;;32.33;11.93;;;;;;;;;;5073682;28;20123;-65
2021/03/04 10:11:04;;;;;;;22.42;12.48;;;18.30;38.00;;;;;;5073882;28;20421;-66
2021/03/04 10:13:31;;;;;;;20.92;11.60;;;19.10;34.90;;;;;;5074874;28;20051;-66
2021/03/04 10:15:57;;;;;;;19.35;12.40;;;;;;;;;;5072876;28;20506;-66
2021/03/04 10:18:23;;;;;;;21.35;12.88;;;;;;;;;;5070506;28;20017;-69
2021/03/04 10:20:49;;;;;;;27.55;13.68;;;19.20;33.50;;;;;;5075245;28;20143;-67
2021/03/04 10:23:17;;;;;;;24.48;14.20;;;;;;;;;;5075058;28;20031;-70
2021/03/04 10:25:44;;;;;;;22.35;12.95;;;19.50;34.40;;;;;;5073715;28;20027;-67
2021/03/04 10:28:10;;;;;;;17.60;12.50;;;19.90;33.00;;;;;;5074723;28;20485;-67
2021/03/04 10:30:38;;;;;;;22.42;13.25;;;20.20;32.20;;;;;;5074771;28;20103;-68
2021/03/04 10:33:05;;;;;;;56.35;14.25;;;20.60;31.70;;;;;;5074874;28;20066;-67
2021/03/04 10:35:32;;;;;;;18.77;11.88;;;21.20;33.00;;;;;;5057906;28;20036;-69
2021/03/04 10:37:58;;;;;;;13.57;9.65;;;21.70;29.90;;;;;;5054978;28;20048;-71
2021/03/04 10:40:24;;;;;;;15.10;10.18;;;21.90;27.60;;;;;;5054619;28;20395;-68
2021/03/04 10:42:50;;;;;;;16.27;10.93;;;22.00;27.20;;;;;;5054308;28;20518;-76
2021/03/04 10:45:18;;;;;;;13.65;10.18;;;22.50;27.80;;;;;;5066110;28;20025;-64
2021/03/04 10:47:46;;;;;;;18.23;10.90;;;22.40;27.20;;;;;;5073803;28;20170;-64
2021/03/04 10:50:16;;;;;;;15.65;9.63;;;22.80;27.30;;;;;;5073803;28;20047;-70
2021/03/04 10:52:42;;;;;;;15.63;9.80;;;;;;;;;;5074320;28;20029;-70
2021/03/04 10:55:09;;;;;;;17.70;11.07;;;23.40;29.40;;;;;;5074384;28;20052;-72
2021/03/04 10:57:36;;;;;;;17.90;11.55;;;24.40;31.00;;;;;;5074024;28;20130;-71
2021/03/04 11:00:07;;;;;;;14.98;9.88;;;24.90;30.70;;;;;;5074068;28;20808;-73
2021/03/04 11:02:33;;;;;;;;;;;25.80;26.60;;;;;;5074228;28;20047;-72
2021/03/04 11:04:59;;;;;;;14.55;9.23;;;25.90;24.80;;;;;;5066337;28;19908;-71
2021/03/04 11:07:25;;;;;;;16.63;9.73;;;;;;;;;;5060052;28;20029;-69
2021/03/04 11:09:52;;;;;;;16.73;9.50;;;;;;;;;;5061827;28;20100;-70
2021/03/04 11:12:19;;;;;;;17.40;11.50;;;26.10;25.90;;;;;;5073600;28;20021;-67
2021/03/04 11:14:45;;;;;;;15.15;10.60;;;26.90;26.40;;;;;;5073686;28;20024;-71
2021/03/04 11:17:11;;;;;;;15.10;10.73;;;27.10;25.70;;;;;;5073830;28;20177;-68
2021/03/04 11:19:37;;;;;;;26.48;10.57;;;26.90;23.60;;;;;;5072981;28;20527;-67
2021/03/04 11:22:03;;;;;;;16.58;10.90;;;27.70;24.20;;;;;;5073267;28;20056;-67
2021/03/04 11:24:29;;;;;;;20.05;12.60;;;27.60;22.70;;;;;;5072508;28;20082;-65
2021/03/04 11:26:55;;;;;;;17.05;11.52;;;28.60;22.00;;;;;;5073648;28;20033;-63
2021/03/04 11:29:22;;;;;;;15.82;11.63;;;28.10;21.30;;;;;;5073599;28;20508;-62
2021/03/04 11:31:47;;;;;;;21.75;11.40;;;28.50;21.50;;;;;;5071815;28;20082;-63
2021/03/04 11:34:14;;;;;;;20.00;12.50;;;29.60;21.40;;;;;;5072236;28;20029;-62
2021/03/04 11:36:39;;;;;;;21.48;12.05;;;29.60;21.10;;;;;;5073508;28;20396;-65
2021/03/04 11:39:06;;;;;;;17.60;13.23;;;;;;;;;;5072160;28;20064;-62
2021/03/04 11:41:32;;;;;;;14.88;11.10;;;;;;;;;;5073389;28;20024;-64
2021/03/04 11:43:58;;;;;;;17.08;10.23;;;;;;;;;;5071742;28;20020;-62
2021/03/04 11:46:25;;;;;;;13.52;10.32;;;;;;;;;;5073165;28;20145;-63
2021/03/04 11:48:52;;;;;;;15.52;9.15;;;;;;;;;;5073201;28;20037;-63
2021/03/04 11:51:18;;;;;;;18.27;10.43;;;;;;;;;;5073221;28;20024;-64
2021/03/04 11:53:45;;;;;;;14.23;9.15;;;;;;;;;;5073349;28;20112;-64
2021/03/04 11:56:11;;;;;;;14.90;9.32;;;;;;;;;;5072835;28;20064;-67
2021/03/04 11:58:37;;;;;;;12.40;7.88;;;;;;;;;;5071814;28;20124;-66
2021/03/04 12:01:04;;;;;;;12.43;8.98;;;;;;;;;;5072815;28;20032;-66
2021/03/04 12:03:30;;;;;;;12.43;8.32;;;;;;;;;;5073008;28;20473;-67
2021/03/04 12:05:57;;;;;;;12.88;8.75;;;;;;;;;;5073142;28;20020;-64
2021/03/04 12:08:23;;;;;;;12.38;8.90;;;;;;;;;;5049738;28;20052;-69
2021/03/04 12:10:49;;;;;;;16.58;10.57;;;;;;;;;;5042206;28;20486;-64
2021/03/04 12:13:15;;;;;;;29.42;12.02;;;;;;;;;;5058599;28;20035;-64
2021/03/04 12:15:42;;;;;;;18.42;8.85;;;;;;;;;;5053701;28;20066;-65
2021/03/04 12:18:09;;;;;;;10.68;6.85;;;;;;;;;;5072992;28;20379;-65
2021/03/04 12:20:36;;;;;;;11.32;8.85;;;;;;;;;;5072482;28;20040;-68
2021/03/04 12:23:02;;;;;;;9.48;6.85;;;;;;;;;;5058951;28;20021;-67
2021/03/04 12:25:28;;;;;;;9.98;7.10;;;;;;;;;;5052936;28;20421;-68
2021/03/04 12:27:55;;;;;;;17.85;10.10;;;;;;;;;;5051638;28;20112;-69
2021/03/04 12:30:22;;;;;;;12.73;7.03;;;34.10;17.60;;;;;;5070295;28;20100;-64
2021/03/04 12:32:48;;;;;;;11.57;7.20;;;34.20;18.50;;;;;;5069983;28;20032;-64
2021/03/04 12:35:14;;;;;;;16.80;10.43;;;33.40;17.70;;;;;;5072833;28;20025;-64
2021/03/04 12:37:41;;;;;;;10.85;7.47;;;33.90;18.70;;;;;;5075281;28;20605;-62
2021/03/04 12:40:08;;;;;;;7.88;6.18;;;33.30;18.00;;;;;;5076884;28;20036;-61
2021/03/04 12:42:34;;;;;;;9.95;6.35;;;33.10;17.40;;;;;;5076903;28;20031;-62
2021/03/04 12:45:00;;;;;;;9.13;6.35;;;;;;;;;;5072722;28;20032;-62
2021/03/04 12:47:26;;;;;;;8.73;6.75;;;;;;;;;;5065263;28;20025;-61
2021/03/04 12:49:53;;;;;;;21.52;11.52;;;;;;;;;;5057026;28;20043;-63
2021/03/04 12:52:20;;;;;;;16.45;10.77;;;31.90;18.90;;;;;;5056786;28;20025;-62
2021/03/04 12:54:47;;;;;;;10.93;7.18;;;31.80;19.10;;;;;;5056707;28;20037;-62
2021/03/04 12:57:13;;;;;;;12.68;6.78;;;32.90;18.30;;;;;;5056383;28;20494;-63
2021/03/04 12:59:39;;;;;;;10.63;6.15;;;34.10;19.10;;;;;;5067762;28;20471;-62
2021/03/04 13:02:06;;;;;;;20.77;10.05;;;32.50;17.10;;;;;;5055963;28;20094;-61
2021/03/04 13:04:32;;;;;;;7.18;6.13;;;31.70;18.00;;;;;;5054915;28;20033;-62
2021/03/04 13:06:58;;;;;;;9.70;8.02;;;31.40;17.80;;;;;;5056187;28;20478;-61
2021/03/04 13:09:24;;;;;;;10.90;6.95;;;;;;;;;;5055907;28;20029;-63
2021/03/04 13:11:50;;;;;;;9.35;6.88;;;;;;;;;;5056342;28;20036;-62
2021/03/04 13:14:16;;;;;;;8.80;7.18;;;;;;;;;;5061919;28;20016;-63
2021/03/04 13:16:42;;;;;;;9.77;6.10;;;;;;;;;;5066645;28;20028;-62
2021/03/04 13:19:10;;;;;;;10.20;6.00;;;;;;;;;;5055624;28;20124;-63
2021/03/04 13:21:36;;;;;;;7.20;4.80;;;30.70;17.70;;;;;;5054843;28;20029;-62
2021/03/04 13:24:02;;;;;;;11.07;6.18;;;30.80;18.30;;;;;;5056115;28;20021;-62
2021/03/04 13:26:28;;;;;;;7.60;5.05;;;31.30;19.00;;;;;;5054800;28;20036;-63
2021/03/04 13:28:54;;;;;;;6.47;4.78;;;31.50;41.70;;;;;;5055880;28;20043;-61
2021/03/04 13:31:20;;;;;;;5.13;4.32;;;31.00;17.80;;;;;;5054577;28;20064;-62
2021/03/04 13:33:46;;;;;;;11.30;6.18;;;30.10;16.90;;;;;;5056022;28;20114;-61
2021/03/04 13:36:12;;;;;;;7.07;4.63;;;28.10;17.90;;;;;;5055766;28;20467;-61
2021/03/04 13:38:38;;;;;;;6.35;5.15;;;27.90;18.50;;;;;;5055279;28;20060;-62